createdAt,value
2018-02-16T00:00:09.853Z,0
2018-02-16T00:01:09.564Z,0
2018-02-16T00:02:10.318Z,0
2018-02-16T00:03:09.793Z,0
2018-02-16T00:04:10.037Z,0
2018-02-16T00:05:09.763Z,0
2018-02-16T00:06:10.007Z,0
2018-02-16T00:07:09.993Z,0
2018-02-16T00:08:09.730Z,0
2018-02-16T00:09:09.712Z,0
2018-02-16T00:10:09.980Z,0
2018-02-16T00:11:10.187Z,0
2018-02-16T00:12:09.671Z,0
2018-02-16T00:13:09.925Z,0
2018-02-16T00:14:09.646Z,0
2018-02-16T00:15:10.136Z,0
2018-02-16T00:16:09.884Z,0
2018-02-16T00:17:10.118Z,0
2018-02-16T00:18:09.595Z,0
2018-02-16T00:19:09.834Z,0
2018-02-16T00:20:09.314Z,0
2018-02-16T00:21:10.061Z,0
2018-02-16T00:22:09.542Z,0
2018-02-16T00:23:10.044Z,0
2018-02-16T00:24:09.517Z,0
2018-02-16T00:25:09.758Z,0
2018-02-16T00:26:09.234Z,0
2018-02-16T00:27:09.476Z,0
2018-02-16T00:28:09.457Z,0
2018-02-16T00:29:09.737Z,0
2018-02-16T00:30:09.693Z,0
2018-02-16T00:31:09.686Z,0
2018-02-16T00:32:09.659Z,0
2018-02-16T00:35:09.365Z,0
2018-02-16T00:36:09.358Z,0
2018-02-16T00:37:09.592Z,0
2018-02-16T00:38:09.588Z,0
2018-02-16T00:39:09.567Z,0
2018-02-16T00:41:09.542Z,0
2018-02-16T00:42:09.015Z,0
2018-02-16T00:43:09.570Z,0
2018-02-16T00:44:09.249Z,0
2018-02-16T00:45:09.486Z,0
2018-02-16T00:46:09.733Z,0
2018-02-16T00:47:09.722Z,0
2018-02-16T00:48:09.189Z,0
2018-02-16T00:49:09.183Z,0
2018-02-16T00:50:24.091Z,0
2018-02-16T00:51:09.664Z,0
2018-02-16T00:52:09.667Z,0
2018-02-16T00:53:09.630Z,0
2018-02-16T00:54:08.858Z,0
2018-02-16T00:55:09.362Z,0
2018-02-16T00:56:09.086Z,0
2018-02-16T00:57:09.328Z,0
2018-02-16T00:58:09.313Z,0
2018-02-16T00:59:09.558Z,0
2018-02-16T01:00:09.034Z,0
2018-02-16T01:01:24.196Z,0
2018-02-16T01:02:09.306Z,0
2018-02-16T01:03:09.250Z,0
2018-02-16T01:04:09.237Z,0
2018-02-16T01:05:09.530Z,0
2018-02-16T01:06:09.212Z,0
2018-02-16T01:07:09.467Z,0
2018-02-16T01:08:08.935Z,0
2018-02-16T01:09:08.918Z,0
2018-02-16T01:10:08.913Z,0
2018-02-16T01:11:08.897Z,0
2018-02-16T01:12:08.880Z,0
2018-02-16T01:13:09.117Z,0
2018-02-16T01:14:09.109Z,0
2018-02-16T01:15:09.084Z,0
2018-02-16T01:16:09.331Z,0
2018-02-16T01:17:08.814Z,0
2018-02-16T01:18:08.542Z,0
2018-02-16T01:19:08.784Z,0
2018-02-16T01:20:09.022Z,0
2018-02-16T01:21:08.753Z,0
2018-02-16T01:22:08.992Z,0
2018-02-16T01:23:08.990Z,0
2018-02-16T01:24:09.232Z,0
2018-02-16T01:25:09.216Z,0
2018-02-16T01:26:09.199Z,0
2018-02-16T01:27:08.701Z,0
2018-02-16T01:28:09.165Z,0
2018-02-16T01:29:08.762Z,0
2018-02-16T01:30:09.147Z,0
2018-02-16T01:31:08.874Z,0
2018-02-16T01:32:08.605Z,0
2018-02-16T01:33:08.856Z,0
2018-02-16T01:34:08.846Z,0
2018-02-16T01:35:09.077Z,0
2018-02-16T01:36:08.806Z,0
2018-02-16T01:37:08.537Z,0
2018-02-16T01:38:08.528Z,0
2018-02-16T01:39:08.764Z,0
2018-02-16T01:40:08.753Z,0
2018-02-16T01:41:09.006Z,0
2018-02-16T01:42:08.985Z,0
2018-02-16T01:43:08.464Z,0
2018-02-16T01:44:08.450Z,0
2018-02-16T01:45:08.698Z,0
2018-02-16T01:46:08.678Z,0
2018-02-16T01:47:08.669Z,0
2018-02-16T01:48:08.420Z,0
2018-02-16T01:49:08.649Z,0
2018-02-16T01:50:08.362Z,0
2018-02-16T01:51:08.858Z,0
2018-02-16T01:52:08.934Z,0
2018-02-16T01:53:08.853Z,0
2018-02-16T01:54:08.317Z,0
2018-02-16T01:55:08.054Z,0
2018-02-16T01:56:08.290Z,0
2018-02-16T01:57:08.278Z,0
2018-02-16T01:58:08.266Z,0
2018-02-16T01:59:08.251Z,0
2018-02-16T02:00:08.490Z,0
2018-02-16T02:01:08.488Z,0
2018-02-16T02:02:08.722Z,0
2018-02-16T02:03:07.943Z,0
2018-02-16T02:04:08.448Z,0
2018-02-16T02:05:08.427Z,0
2018-02-16T02:06:08.409Z,0
2018-02-16T02:07:08.658Z,0
2018-02-16T02:08:08.129Z,0
2018-02-16T02:09:08.132Z,0
2018-02-16T02:10:08.360Z,0
2018-02-16T02:11:08.600Z,0
2018-02-16T02:12:08.581Z,0
2018-02-16T02:13:08.573Z,0
2018-02-16T02:14:08.306Z,0
2018-02-16T02:15:08.292Z,0
2018-02-16T02:16:08.274Z,0
2018-02-16T02:17:08.016Z,0
2018-02-16T02:18:08.252Z,0
2018-02-16T02:19:08.496Z,0
2018-02-16T02:20:08.487Z,0
2018-02-16T02:21:08.210Z,0
2018-02-16T02:22:07.946Z,0
2018-02-16T02:23:08.441Z,0
2018-02-16T02:24:08.426Z,0
2018-02-16T02:25:08.158Z,0
2018-02-16T02:26:08.149Z,0
2018-02-16T02:27:07.881Z,0
2018-02-16T02:28:07.869Z,0
2018-02-16T02:29:08.103Z,0
2018-02-16T02:30:07.840Z,0
2018-02-16T02:31:08.090Z,0
2018-02-16T02:32:08.077Z,0
2018-02-16T02:33:08.055Z,0
2018-02-16T02:34:08.042Z,0
2018-02-16T02:35:07.782Z,0
2018-02-16T02:36:08.010Z,0
2018-02-16T02:37:07.996Z,0
2018-02-16T02:38:07.989Z,0
2018-02-16T02:39:07.968Z,0
2018-02-16T02:40:07.967Z,0
2018-02-16T02:41:07.695Z,0
2018-02-16T02:42:07.944Z,0
2018-02-16T02:43:07.920Z,0
2018-02-16T02:44:08.162Z,0
2018-02-16T02:45:07.645Z,0
2018-02-16T02:46:07.625Z,0
2018-02-16T02:47:07.864Z,0
2018-02-16T02:48:07.845Z,0
2018-02-16T02:49:07.874Z,0
2018-02-16T02:50:07.828Z,0
2018-02-16T02:51:08.063Z,0
2018-02-16T02:52:07.790Z,0
2018-02-16T02:53:07.785Z,0
2018-02-16T02:54:07.771Z,0
2018-02-16T02:55:07.754Z,0
2018-02-16T02:56:07.742Z,0
2018-02-16T02:57:07.741Z,0
2018-02-16T02:58:07.714Z,0
2018-02-16T02:59:07.702Z,0
2018-02-16T03:00:07.437Z,0
2018-02-16T03:01:07.676Z,0
2018-02-16T03:02:07.403Z,0
2018-02-16T03:03:07.639Z,0
2018-02-16T03:04:07.636Z,0
2018-02-16T03:05:07.630Z,0
2018-02-16T03:06:07.350Z,0
2018-02-16T03:07:07.594Z,0
2018-02-16T03:08:07.573Z,0
2018-02-16T03:09:07.818Z,0
2018-02-16T03:10:07.040Z,0
2018-02-16T03:11:07.535Z,0
2018-02-16T03:12:07.264Z,0
2018-02-16T03:13:07.260Z,0
2018-02-16T03:14:07.498Z,0
2018-02-16T03:15:07.225Z,0
2018-02-16T03:16:07.464Z,0
2018-02-16T03:17:07.706Z,0
2018-02-16T03:18:07.443Z,0
2018-02-16T03:19:07.676Z,0
2018-02-16T03:20:07.413Z,0
2018-02-16T03:21:07.152Z,0
2018-02-16T03:22:07.384Z,0
2018-02-16T03:23:07.375Z,0
2018-02-16T03:24:07.370Z,0
2018-02-16T03:25:07.343Z,0
2018-02-16T03:26:07.582Z,0
2018-02-16T03:27:07.069Z,0
2018-02-16T03:28:07.558Z,0
2018-02-16T03:29:07.543Z,0
2018-02-16T03:30:07.286Z,0
2018-02-16T03:31:07.013Z,0
2018-02-16T03:32:07.260Z,0
2018-02-16T03:33:07.233Z,0
2018-02-16T03:34:07.225Z,0
2018-02-16T03:35:07.213Z,0
2018-02-16T03:36:07.194Z,0
2018-02-16T03:37:06.926Z,0
2018-02-16T03:38:06.915Z,0
2018-02-16T03:39:07.160Z,0
2018-02-16T03:40:07.176Z,0
2018-02-16T03:41:07.126Z,0
2018-02-16T03:42:07.113Z,0
2018-02-16T03:43:07.359Z,0
2018-02-16T03:44:07.092Z,0
2018-02-16T03:45:07.073Z,0
2018-02-16T03:46:07.310Z,0
2018-02-16T03:47:07.065Z,0
2018-02-16T03:48:07.030Z,0
2018-02-16T03:49:07.018Z,0
2018-02-16T03:50:07.005Z,0
2018-02-16T03:51:06.773Z,0
2018-02-16T03:52:06.981Z,0
2018-02-16T03:53:06.968Z,0
2018-02-16T03:54:06.945Z,0
2018-02-16T03:55:07.190Z,0
2018-02-16T03:56:06.924Z,0
2018-02-16T03:57:06.913Z,0
2018-02-16T03:58:06.646Z,0
2018-02-16T03:59:06.885Z,0
2018-02-16T04:00:06.874Z,0
2018-02-16T04:01:07.137Z,0
2018-02-16T04:02:06.588Z,0
2018-02-16T04:03:06.833Z,0
2018-02-16T04:04:06.821Z,0
2018-02-16T04:05:06.799Z,0
2018-02-16T04:06:06.794Z,0
2018-02-16T04:07:07.035Z,0
2018-02-16T04:08:06.512Z,0
2018-02-16T04:09:07.005Z,0
2018-02-16T04:10:06.736Z,0
2018-02-16T04:11:06.721Z,0
2018-02-16T04:12:06.714Z,0
2018-02-16T04:13:06.951Z,0
2018-02-16T04:14:06.940Z,0
2018-02-16T04:15:06.922Z,0
2018-02-16T04:16:06.700Z,0
2018-02-16T04:17:06.652Z,0
2018-02-16T04:18:06.652Z,0
2018-02-16T04:19:06.874Z,0
2018-02-16T04:20:06.607Z,0
2018-02-16T04:21:06.842Z,0
2018-02-16T04:22:06.841Z,0
2018-02-16T04:23:06.307Z,0
2018-02-16T04:24:06.545Z,0
2018-02-16T04:25:06.532Z,0
2018-02-16T04:26:06.773Z,0
2018-02-16T04:27:06.518Z,0
2018-02-16T04:28:06.758Z,0
2018-02-16T04:29:06.732Z,0
2018-02-16T04:30:06.729Z,0
2018-02-16T04:31:06.449Z,0
2018-02-16T04:32:06.441Z,0
2018-02-16T04:33:06.465Z,0
2018-02-16T04:34:06.417Z,0
2018-02-16T04:35:06.657Z,0
2018-02-16T04:36:06.398Z,0
2018-02-16T04:37:06.620Z,0
2018-02-16T04:38:06.609Z,0
2018-02-16T04:39:06.094Z,0
2018-02-16T04:40:06.584Z,0
2018-02-16T04:41:06.572Z,0
2018-02-16T04:42:06.322Z,0
2018-02-16T04:43:06.549Z,0
2018-02-16T04:44:06.018Z,0
2018-02-16T04:45:06.515Z,0
2018-02-16T04:46:06.517Z,0
2018-02-16T04:47:06.732Z,0
2018-02-16T04:48:06.213Z,0
2018-02-16T04:49:06.458Z,0
2018-02-16T04:50:06.190Z,0
2018-02-16T04:51:06.180Z,0
2018-02-16T04:52:06.159Z,0
2018-02-16T04:53:05.905Z,0
2018-02-16T04:54:06.391Z,0
2018-02-16T04:55:06.136Z,0
2018-02-16T04:56:06.105Z,0
2018-02-16T04:57:21.008Z,0
2018-02-16T04:58:06.342Z,0
2018-02-16T04:59:06.069Z,0
2018-02-16T05:00:06.318Z,0
2018-02-16T05:01:06.064Z,0
2018-02-16T05:02:06.023Z,0
2018-02-16T05:03:06.260Z,0
2018-02-16T05:04:06.249Z,0
2018-02-16T05:05:05.741Z,0
2018-02-16T05:06:06.218Z,0
2018-02-16T05:07:05.949Z,0
2018-02-16T05:08:05.937Z,0
2018-02-16T05:09:05.663Z,0
2018-02-16T05:10:05.905Z,0
2018-02-16T05:11:05.886Z,0
2018-02-16T05:12:06.126Z,0
2018-02-16T05:13:06.122Z,0
2018-02-16T05:14:05.852Z,0
2018-02-16T05:15:06.088Z,0
2018-02-16T05:16:06.081Z,0
2018-02-16T05:17:05.549Z,0
2018-02-16T05:18:05.791Z,0
2018-02-16T05:19:05.775Z,0
2018-02-16T05:20:06.015Z,0
2018-02-16T05:21:06.006Z,0
2018-02-16T05:22:05.728Z,0
2018-02-16T05:23:20.633Z,0
2018-02-16T05:24:05.958Z,0
2018-02-16T05:25:05.183Z,0
2018-02-16T05:26:05.935Z,0
2018-02-16T05:27:05.722Z,0
2018-02-16T05:28:05.638Z,0
2018-02-16T05:29:05.644Z,0
2018-02-16T05:30:05.620Z,0
2018-02-16T05:31:05.850Z,0
2018-02-16T05:32:05.588Z,0
2018-02-16T05:33:05.317Z,0
2018-02-16T05:34:05.564Z,0
2018-02-16T05:35:05.295Z,0
2018-02-16T05:36:05.036Z,0
2018-02-16T05:37:05.768Z,0
2018-02-16T05:38:05.505Z,0
2018-02-16T05:39:05.740Z,0
2018-02-16T05:40:05.730Z,0
2018-02-16T05:41:05.714Z,0
2018-02-16T05:42:05.193Z,0
2018-02-16T05:43:05.425Z,0
2018-02-16T05:44:05.417Z,0
2018-02-16T05:45:05.660Z,0
2018-02-16T05:46:05.637Z,0
2018-02-16T05:47:05.627Z,0
2018-02-16T05:48:05.612Z,0
2018-02-16T05:49:05.348Z,0
2018-02-16T05:50:05.078Z,0
2018-02-16T05:51:05.318Z,0
2018-02-16T05:52:05.308Z,0
2018-02-16T05:53:05.291Z,0
2018-02-16T05:54:05.538Z,0
2018-02-16T05:55:05.592Z,0
2018-02-16T05:56:05.247Z,0
2018-02-16T05:57:05.474Z,0
2018-02-16T05:58:05.218Z,0
2018-02-16T05:59:05.197Z,0
2018-02-16T06:00:04.943Z,0
2018-02-16T06:01:05.174Z,0
2018-02-16T06:02:05.158Z,0
2018-02-16T06:03:05.398Z,0
2018-02-16T06:04:04.618Z,0
2018-02-16T06:05:05.109Z,0
2018-02-16T06:06:04.846Z,0
2018-02-16T06:07:05.079Z,0
2018-02-16T06:08:04.818Z,0
2018-02-16T06:09:05.314Z,0
2018-02-16T06:10:04.780Z,5
2018-02-16T06:11:04.772Z,5
2018-02-16T06:12:05.006Z,5
2018-02-16T06:13:04.994Z,5
2018-02-16T06:14:05.236Z,5
2018-02-16T06:15:04.958Z,5
2018-02-16T06:16:05.021Z,5
2018-02-16T06:17:04.932Z,10
2018-02-16T06:18:05.178Z,10
2018-02-16T06:19:05.153Z,10
2018-02-16T06:20:04.379Z,10
2018-02-16T06:21:04.865Z,15
2018-02-16T06:22:04.918Z,15
2018-02-16T06:23:04.843Z,15
2018-02-16T06:24:05.085Z,15
2018-02-16T06:25:05.070Z,20
2018-02-16T06:26:04.792Z,20
2018-02-16T06:27:04.779Z,20
2018-02-16T06:28:04.757Z,25
2018-02-16T06:29:05.000Z,25
2018-02-16T06:30:04.749Z,25
2018-02-16T06:31:05.207Z,30
2018-02-16T06:32:04.698Z,30
2018-02-16T06:33:04.720Z,35
2018-02-16T06:34:04.927Z,35
2018-02-16T06:35:04.913Z,35
2018-02-16T06:36:04.382Z,40
2018-02-16T06:37:04.878Z,40
2018-02-16T06:38:04.354Z,45
2018-02-16T06:39:04.593Z,45
2018-02-16T06:40:04.834Z,45
2018-02-16T06:41:04.854Z,45
2018-02-16T06:42:04.293Z,45
2018-02-16T06:43:04.528Z,50
2018-02-16T06:44:04.310Z,55
2018-02-16T06:45:04.517Z,55
2018-02-16T06:46:04.740Z,55
2018-02-16T06:47:05.127Z,60
2018-02-16T06:48:04.719Z,65
2018-02-16T06:49:04.707Z,65
2018-02-16T06:50:04.696Z,70
2018-02-16T06:51:04.408Z,75
2018-02-16T06:52:04.392Z,75
2018-02-16T06:53:04.378Z,80
2018-02-16T06:54:04.609Z,80
2018-02-16T06:55:04.602Z,80
2018-02-16T06:56:03.820Z,90
2018-02-16T06:57:04.622Z,90
2018-02-16T06:58:04.298Z,90
2018-02-16T06:59:04.314Z,95
2018-02-16T07:00:04.596Z,100
2018-02-16T07:01:04.260Z,95
2018-02-16T07:02:04.526Z,110
2018-02-16T07:03:04.219Z,110
2018-02-16T07:04:04.465Z,115
2018-02-16T07:05:03.942Z,115
2018-02-16T07:06:03.927Z,125
2018-02-16T07:07:04.424Z,125
2018-02-16T07:08:04.147Z,130
2018-02-16T07:09:03.884Z,135
2018-02-16T07:10:04.379Z,130
2018-02-16T07:11:04.115Z,140
2018-02-16T07:12:04.387Z,145
2018-02-16T07:13:04.082Z,135
2018-02-16T07:14:04.336Z,150
2018-02-16T07:15:04.050Z,140
2018-02-16T07:16:04.032Z,150
2018-02-16T07:17:04.312Z,160
2018-02-16T07:18:04.066Z,155
2018-02-16T07:19:03.754Z,165
2018-02-16T07:20:04.299Z,170
2018-02-16T07:21:04.218Z,175
2018-02-16T07:22:04.206Z,170
2018-02-16T07:23:03.677Z,175
2018-02-16T07:24:04.178Z,155
2018-02-16T07:25:04.166Z,180
2018-02-16T07:26:04.155Z,190
2018-02-16T07:27:04.142Z,190
2018-02-16T07:28:04.131Z,195
2018-02-16T07:29:03.610Z,200
2018-02-16T07:30:04.098Z,205
2018-02-16T07:31:03.947Z,210
2018-02-16T07:32:03.822Z,210
2018-02-16T07:33:04.059Z,210
2018-02-16T07:34:04.047Z,210
2018-02-16T07:35:04.030Z,170
2018-02-16T07:36:03.765Z,185
2018-02-16T07:37:04.035Z,230
2018-02-16T07:38:03.514Z,215
2018-02-16T07:39:03.731Z,165
2018-02-16T07:40:03.973Z,230
2018-02-16T07:41:03.453Z,240
2018-02-16T07:42:03.947Z,245
2018-02-16T07:43:03.684Z,255
2018-02-16T07:44:03.417Z,255
2018-02-16T07:45:03.918Z,260
2018-02-16T07:46:03.912Z,265
2018-02-16T07:47:03.638Z,265
2018-02-16T07:48:03.629Z,270
2018-02-16T07:49:03.631Z,270
2018-02-16T07:50:03.343Z,230
2018-02-16T07:51:03.846Z,180
2018-02-16T07:52:03.854Z,175
2018-02-16T07:53:03.817Z,175
2018-02-16T07:54:03.554Z,175
2018-02-16T07:55:03.796Z,180
2018-02-16T07:56:03.536Z,185
2018-02-16T07:57:03.262Z,190
2018-02-16T07:58:03.499Z,195
2018-02-16T07:59:03.746Z,200
2018-02-16T08:00:03.488Z,190
2018-02-16T08:01:03.481Z,190
2018-02-16T08:02:03.200Z,190
2018-02-16T08:03:03.441Z,190
2018-02-16T08:04:03.449Z,200
2018-02-16T08:05:03.678Z,200
2018-02-16T08:06:03.663Z,195
2018-02-16T08:07:03.396Z,185
2018-02-16T08:08:03.641Z,180
2018-02-16T08:09:03.632Z,175
2018-02-16T08:10:03.628Z,175
2018-02-16T08:11:03.354Z,180
2018-02-16T08:12:03.635Z,185
2018-02-16T08:13:03.597Z,190
2018-02-16T08:14:03.566Z,190
2018-02-16T08:15:03.307Z,200
2018-02-16T08:16:02.780Z,205
2018-02-16T08:17:03.666Z,220
2018-02-16T08:18:03.539Z,230
2018-02-16T08:19:03.515Z,235
2018-02-16T08:20:03.504Z,240
2018-02-16T08:21:02.974Z,240
2018-02-16T08:22:03.478Z,235
2018-02-16T08:23:03.203Z,220
2018-02-16T08:24:03.457Z,205
2018-02-16T08:25:03.457Z,195
2018-02-16T08:26:03.426Z,175
2018-02-16T08:27:03.414Z,170
2018-02-16T08:28:03.171Z,170
2018-02-16T08:29:03.387Z,165
2018-02-16T08:30:03.372Z,170
2018-02-16T08:31:03.100Z,185
2018-02-16T08:32:03.345Z,185
2018-02-16T08:33:03.076Z,190
2018-02-16T08:34:03.323Z,190
2018-02-16T08:35:03.308Z,190
2018-02-16T08:36:02.792Z,195
2018-02-16T08:37:03.038Z,200
2018-02-16T08:38:03.068Z,200
2018-02-16T08:39:03.284Z,200
2018-02-16T08:40:03.026Z,205
2018-02-16T08:41:02.997Z,210
2018-02-16T08:42:02.458Z,215
2018-02-16T08:43:02.958Z,215
2018-02-16T08:44:02.446Z,215
2018-02-16T08:45:02.948Z,215
2018-02-16T08:46:02.663Z,210
2018-02-16T08:47:02.654Z,205
2018-02-16T08:48:03.157Z,200
2018-02-16T08:49:03.145Z,195
2018-02-16T08:50:02.889Z,200
2018-02-16T08:51:02.888Z,190
2018-02-16T08:52:03.108Z,190
2018-02-16T08:53:03.117Z,195
2018-02-16T08:54:03.067Z,190
2018-02-16T08:55:02.822Z,190
2018-02-16T08:56:02.549Z,190
2018-02-16T08:57:03.087Z,190
2018-02-16T08:58:02.524Z,185
2018-02-16T08:59:02.763Z,185
2018-02-16T09:00:02.526Z,185
2018-02-16T09:01:02.742Z,185
2018-02-16T09:02:02.492Z,185
2018-02-16T09:03:02.970Z,185
2018-02-16T09:04:02.706Z,185
2018-02-16T09:05:02.694Z,185
2018-02-16T09:06:02.418Z,185
2018-02-16T09:07:02.413Z,185
2018-02-16T09:08:02.416Z,185
2018-02-16T09:09:02.710Z,185
2018-02-16T09:10:02.632Z,180
2018-02-16T09:11:02.619Z,180
2018-02-16T09:12:01.841Z,180
2018-02-16T09:13:02.877Z,180
2018-02-16T09:14:02.837Z,180
2018-02-16T09:15:02.824Z,185
2018-02-16T09:16:02.812Z,185
2018-02-16T09:17:02.792Z,185
2018-02-16T09:18:02.289Z,180
2018-02-16T09:19:02.550Z,180
2018-02-16T09:20:02.528Z,180
2018-02-16T09:21:01.982Z,185
2018-02-16T09:22:02.246Z,180
2018-02-16T09:23:02.737Z,185
2018-02-16T09:24:02.458Z,185
2018-02-16T09:25:02.718Z,185
2018-02-16T09:26:02.495Z,185
2018-02-16T09:27:02.689Z,185
2018-02-16T09:28:02.156Z,185
2018-02-16T09:29:02.154Z,180
2018-02-16T09:30:02.448Z,185
2018-02-16T09:31:02.394Z,185
2018-02-16T09:32:01.863Z,185
2018-02-16T09:33:02.355Z,185
2018-02-16T09:34:02.718Z,180
2018-02-16T09:35:02.705Z,185
2018-02-16T09:36:02.417Z,185
2018-02-16T09:37:02.303Z,185
2018-02-16T09:38:02.289Z,180
2018-02-16T09:39:02.048Z,180
2018-02-16T09:40:02.268Z,180
2018-02-16T09:41:02.513Z,180
2018-02-16T09:42:01.742Z,180
2018-02-16T09:43:02.487Z,180
2018-02-16T09:44:01.965Z,180
2018-02-16T09:46:02.509Z,180
2018-02-16T09:47:01.948Z,180
2018-02-16T09:48:02.435Z,180
2018-02-16T09:49:02.196Z,180
2018-02-16T09:50:02.263Z,180
2018-02-16T09:51:01.912Z,180
2018-02-16T09:52:02.126Z,180
2018-02-16T09:53:01.882Z,180
2018-02-16T09:54:02.382Z,180
2018-02-16T09:55:01.835Z,180
2018-02-16T09:56:02.088Z,180
2018-02-16T09:57:02.076Z,180
2018-02-16T09:58:01.565Z,180
2018-02-16T09:59:02.063Z,180
2018-02-16T10:00:02.034Z,180
2018-02-16T10:01:02.309Z,180
2018-02-16T10:02:02.291Z,180
2018-02-16T10:03:02.277Z,180
2018-02-16T10:04:02.001Z,180
2018-02-16T10:05:01.992Z,180
2018-02-16T10:06:02.227Z,180
2018-02-16T10:07:01.971Z,180
2018-02-16T10:08:01.940Z,180
2018-02-16T10:09:02.210Z,180
2018-02-16T10:10:01.925Z,185
2018-02-16T10:11:02.218Z,190
2018-02-16T10:12:01.902Z,195
2018-02-16T10:13:01.959Z,195
2018-02-16T10:14:02.140Z,210
2018-02-16T10:15:02.142Z,225
2018-02-16T10:16:01.854Z,230
2018-02-16T10:17:01.878Z,230
2018-02-16T10:18:01.855Z,225
2018-02-16T10:19:02.128Z,215
2018-02-16T10:20:01.816Z,215
2018-02-16T10:21:02.045Z,215
2018-02-16T10:22:01.785Z,215
2018-02-16T10:23:02.026Z,220
2018-02-16T10:24:02.026Z,225
2018-02-16T10:25:01.763Z,225
2018-02-16T10:26:01.746Z,225
2018-02-16T10:27:01.742Z,225
2018-02-16T10:28:02.000Z,225
2018-02-16T10:29:01.741Z,225
2018-02-16T10:30:01.785Z,240
2018-02-16T10:31:01.696Z,255
2018-02-16T10:32:01.930Z,265
2018-02-16T10:33:01.674Z,260
2018-02-16T10:34:01.656Z,235
2018-02-16T10:35:01.397Z,225
2018-02-16T10:36:01.926Z,215
2018-02-16T10:37:01.893Z,200
2018-02-16T10:38:02.164Z,190
2018-02-16T10:39:01.869Z,190
2018-02-16T10:40:01.845Z,185
2018-02-16T10:41:01.595Z,185
2018-02-16T10:42:01.071Z,185
2018-02-16T10:43:01.595Z,185
2018-02-16T10:44:01.565Z,180
2018-02-16T10:45:01.544Z,180
2018-02-16T10:46:01.285Z,180
2018-02-16T10:47:01.793Z,180
2018-02-16T10:48:01.766Z,180
2018-02-16T10:49:01.934Z,185
2018-02-16T10:50:01.021Z,185
2018-02-16T10:51:01.504Z,180
2018-02-16T10:52:01.723Z,175
2018-02-16T10:53:01.733Z,180
2018-02-16T10:54:01.451Z,185
2018-02-16T10:55:01.766Z,190
2018-02-16T10:56:01.442Z,210
2018-02-16T10:57:01.935Z,215
2018-02-16T10:58:01.417Z,215
2018-02-16T10:59:01.178Z,205
2018-02-16T11:00:01.674Z,200
2018-02-16T11:01:02.327Z,195
2018-02-16T11:02:01.373Z,195
2018-02-16T11:03:01.644Z,195
2018-02-16T11:04:01.621Z,195
2018-02-16T11:05:01.372Z,205
2018-02-16T11:06:01.090Z,210
2018-02-16T11:07:01.101Z,225
2018-02-16T11:08:01.092Z,230
2018-02-16T11:09:01.317Z,225
2018-02-16T11:10:01.343Z,230
2018-02-16T11:11:01.493Z,245
2018-02-16T11:12:01.269Z,235
2018-02-16T11:13:01.018Z,230
2018-02-16T11:14:01.276Z,240
2018-02-16T11:15:01.250Z,250
2018-02-16T11:16:01.510Z,255
2018-02-16T11:17:01.225Z,265
2018-02-16T11:18:01.470Z,265
2018-02-16T11:19:01.468Z,255
2018-02-16T11:20:01.202Z,225
2018-02-16T11:21:02.002Z,215
2018-02-16T11:22:01.469Z,220
2018-02-16T11:23:01.419Z,220
2018-02-16T11:24:01.464Z,220
2018-02-16T11:25:01.404Z,225
2018-02-16T11:26:01.138Z,245
2018-02-16T11:27:01.132Z,240
2018-02-16T11:28:01.109Z,245
2018-02-16T11:29:01.206Z,265
2018-02-16T11:30:01.105Z,290
2018-02-16T11:31:01.362Z,300
2018-02-16T11:32:01.087Z,310
2018-02-16T11:33:01.071Z,320
2018-02-16T11:34:01.088Z,325
2018-02-16T11:35:01.339Z,315
2018-02-16T11:36:01.041Z,295
2018-02-16T11:37:01.315Z,290
2018-02-16T11:38:01.026Z,270
2018-02-16T11:39:01.464Z,235
2018-02-16T11:40:01.274Z,245
2018-02-16T11:41:15.659Z,230
2018-02-16T11:42:01.011Z,215
2018-02-16T11:43:00.730Z,220
2018-02-16T11:44:01.008Z,220
2018-02-16T11:45:01.256Z,225
2018-02-16T11:46:00.699Z,215
2018-02-16T11:47:00.943Z,215
2018-02-16T11:48:00.935Z,210
2018-02-16T11:49:01.212Z,210
2018-02-16T11:50:00.404Z,220
2018-02-16T11:51:00.656Z,225
2018-02-16T11:52:00.387Z,225
2018-02-16T11:53:00.631Z,210
2018-02-16T11:54:01.138Z,210
2018-02-16T11:55:00.659Z,210
2018-02-16T11:56:01.110Z,215
2018-02-16T11:57:00.854Z,220
2018-02-16T11:58:01.113Z,230
2018-02-16T11:59:00.835Z,240
2018-02-16T12:03:16.735Z,275
2018-02-16T12:03:47.146Z,275
2018-02-16T12:04:47.384Z,310
2018-02-16T12:05:47.131Z,380
2018-02-16T12:06:47.120Z,345
2018-02-16T12:07:46.857Z,270
2018-02-16T12:08:47.358Z,255
2018-02-16T12:09:47.352Z,285
2018-02-16T12:10:47.387Z,300
2018-02-16T12:11:47.136Z,320
2018-02-16T12:12:47.090Z,410
2018-02-16T12:13:47.347Z,375
2018-02-16T12:14:46.524Z,290
2018-02-16T12:15:47.319Z,300
2018-02-16T12:16:47.013Z,365
2018-02-16T12:17:47.025Z,360
2018-02-16T12:18:47.288Z,305
2018-02-16T12:19:47.291Z,300
2018-02-16T12:20:46.973Z,285
2018-02-16T12:21:46.975Z,300
2018-02-16T12:22:46.967Z,290
2018-02-16T12:23:46.949Z,280
2018-02-16T12:24:47.196Z,250
2018-02-16T12:25:46.938Z,250
2018-02-16T12:26:46.968Z,320
2018-02-16T12:27:47.034Z,290
2018-02-16T12:28:47.200Z,250
2018-02-16T12:29:47.154Z,245
2018-02-16T12:30:47.145Z,225
2018-02-16T12:31:47.323Z,205
2018-02-16T12:32:47.152Z,195
2018-02-16T12:33:47.124Z,190
2018-02-16T12:34:46.872Z,185
2018-02-16T12:35:47.148Z,195
2018-02-16T12:36:46.344Z,180
2018-02-16T12:37:46.322Z,175
2018-02-16T12:38:46.825Z,180
2018-02-16T12:39:46.826Z,185
2018-02-16T12:40:47.059Z,180
2018-02-16T12:41:47.080Z,175
2018-02-16T12:42:46.792Z,175
2018-02-16T12:43:47.046Z,175
2018-02-16T12:44:46.767Z,175
2018-02-16T12:45:46.753Z,185
2018-02-16T12:46:47.002Z,185
2018-02-16T12:47:47.014Z,200
2018-02-16T12:48:46.738Z,220
2018-02-16T12:49:46.464Z,240
2018-02-16T12:50:46.460Z,245
2018-02-16T12:51:46.703Z,230
2018-02-16T12:52:46.701Z,220
2018-02-16T12:53:46.945Z,210
2018-02-16T12:54:46.435Z,205
2018-02-16T12:55:46.938Z,210
2018-02-16T12:56:46.660Z,205
2018-02-16T12:57:46.923Z,195
2018-02-16T12:58:46.631Z,200
2018-02-16T12:59:46.877Z,195
2018-02-16T13:00:46.360Z,195
2018-02-16T13:01:46.917Z,190
2018-02-16T13:02:46.594Z,185
2018-02-16T13:03:46.842Z,185
2018-02-16T13:04:46.328Z,185
2018-02-16T13:05:46.569Z,185
2018-02-16T13:06:46.556Z,180
2018-02-16T13:07:46.542Z,175
2018-02-16T13:08:46.605Z,170
2018-02-16T13:09:46.546Z,170
2018-02-16T13:10:46.535Z,170
2018-02-16T13:11:46.518Z,170
2018-02-16T13:12:46.497Z,170
2018-02-16T13:13:46.245Z,170
2018-02-16T13:14:46.279Z,170
2018-02-16T13:15:46.488Z,170
2018-02-16T13:16:46.461Z,170
2018-02-16T13:17:46.714Z,170
2018-02-16T13:18:46.442Z,170
2018-02-16T13:19:46.688Z,170
2018-02-16T13:20:45.910Z,170
2018-02-16T13:21:46.163Z,175
2018-02-16T13:22:46.400Z,175
2018-02-16T13:23:46.674Z,180
2018-02-16T13:24:46.636Z,180
2018-02-16T13:25:46.378Z,180
2018-02-16T13:26:46.363Z,175
2018-02-16T13:27:46.374Z,175
2018-02-16T13:28:46.335Z,175
2018-02-16T13:29:46.326Z,180
2018-02-16T13:30:46.571Z,185
2018-02-16T13:31:45.805Z,200
2018-02-16T13:32:46.556Z,220
2018-02-16T13:33:46.299Z,225
2018-02-16T13:34:46.300Z,225
2018-02-16T13:35:46.516Z,220
2018-02-16T13:36:46.518Z,215
2018-02-16T13:37:45.997Z,210
2018-02-16T13:38:46.240Z,200
2018-02-16T13:39:46.742Z,190
2018-02-16T13:40:46.494Z,185
2018-02-16T13:41:46.667Z,195
2018-02-16T13:42:46.464Z,195
2018-02-16T13:43:46.229Z,190
2018-02-16T13:44:46.219Z,185
2018-02-16T13:45:46.168Z,180
2018-02-16T13:46:45.910Z,175
2018-02-16T13:47:46.424Z,170
2018-02-16T13:48:46.399Z,170
2018-02-16T13:49:45.621Z,180
2018-02-16T13:50:46.119Z,185
2018-02-16T13:51:46.111Z,195
2018-02-16T13:52:46.459Z,215
2018-02-16T13:53:46.360Z,195
2018-02-16T13:54:46.333Z,155
2018-02-16T13:55:46.338Z,120
2018-02-16T13:56:46.058Z,110
2018-02-16T13:57:45.790Z,110
2018-02-16T13:58:46.055Z,110
2018-02-16T13:59:46.027Z,110
2018-02-16T14:00:46.266Z,105
2018-02-16T14:01:46.280Z,110
2018-02-16T14:02:45.789Z,125
2018-02-16T14:03:46.243Z,150
2018-02-16T14:04:46.227Z,190
2018-02-16T14:05:46.387Z,230
2018-02-16T14:06:45.698Z,220
2018-02-16T14:07:45.959Z,200
2018-02-16T14:08:46.193Z,185
2018-02-16T14:09:46.184Z,170
2018-02-16T14:10:45.951Z,155
2018-02-16T14:11:46.192Z,145
2018-02-16T14:12:45.634Z,150
2018-02-16T14:13:45.886Z,160
2018-02-16T14:14:45.627Z,165
2018-02-16T14:15:45.912Z,185
2018-02-16T14:16:46.110Z,200
2018-02-16T14:17:46.302Z,180
2018-02-16T14:18:45.845Z,170
2018-02-16T14:19:45.839Z,155